createdAt,value
2022-09-20T00:00:28.135Z,94828.72
2022-09-20T00:01:32.683Z,94836.94
2022-09-20T00:02:34.381Z,94827.19
2022-09-20T00:03:37.993Z,94838.63
2022-09-20T00:04:39.618Z,94829.47
2022-09-20T00:05:42.825Z,94829.25
2022-09-20T00:06:44.308Z,94832.81
2022-09-20T00:07:46.217Z,94830.41
2022-09-20T00:08:48.718Z,94835.44
2022-09-20T00:09:50.249Z,94832.81
2022-09-20T00:10:53.518Z,94833.59
2022-09-20T00:11:55.038Z,94833.59
2022-09-20T00:12:57.149Z,94838.44
2022-09-20T00:14:00.744Z,94833.00
2022-09-20T00:15:02.328Z,94837.31
2022-09-20T00:16:09.424Z,94839.94
2022-09-20T00:17:10.975Z,94835.81
2022-09-20T00:18:13.325Z,94835.81
2022-09-20T00:19:21.527Z,94839.94
2022-09-20T00:20:23.776Z,94835.81
2022-09-20T00:21:28.345Z,94841.44
2022-09-20T00:22:30.274Z,94833.59
2022-09-20T00:23:32.782Z,94823.09
2022-09-20T00:24:36.567Z,94824.59
2022-09-20T00:25:38.085Z,94827.97
2022-09-20T00:26:40.679Z,94835.63
2022-09-20T00:27:42.407Z,94830.22
2022-09-20T00:28:44.283Z,94827.19
2022-09-20T00:29:45.931Z,94830.00
2022-09-20T00:30:49.221Z,94827.19
2022-09-20T00:31:50.833Z,94823.09
2022-09-20T00:32:52.401Z,94824.41
2022-09-20T00:34:14.057Z,94821.59
2022-09-20T00:35:16.046Z,94822.38
2022-09-20T00:36:17.588Z,94819.34
2022-09-20T00:37:19.145Z,94825.72
2022-09-20T00:38:20.664Z,94815.97
2022-09-20T00:39:22.209Z,94819.34
2022-09-20T00:40:27.058Z,94829.25
2022-09-20T00:41:30.478Z,94825.72
2022-09-20T00:42:32.361Z,94825.72
2022-09-20T00:43:42.560Z,94834.72
2022-09-20T00:44:58.203Z,94828.34
2022-09-20T00:46:01.378Z,94833.00
2022-09-20T00:47:03.969Z,94835.63
2022-09-20T00:48:14.002Z,94831.16
2022-09-20T00:49:25.495Z,94838.06
2022-09-20T00:50:29.988Z,94834.34
2022-09-20T00:51:38.893Z,94835.25
2022-09-20T00:52:43.927Z,94836.94
2022-09-20T00:53:49.284Z,94839.56
2022-09-20T00:54:51.034Z,94839.94
2022-09-20T00:55:59.501Z,94837.50
2022-09-20T00:57:01.184Z,94836.94
2022-09-20T00:58:03.026Z,94835.25
2022-09-20T00:59:16.480Z,94842.19
2022-09-20T01:00:18.315Z,94845.00
2022-09-20T01:01:19.995Z,94840.88
2022-09-20T01:02:27.902Z,94841.44
2022-09-20T01:03:32.086Z,94843.66
2022-09-20T01:04:36.023Z,94844.25
2022-09-20T01:05:39.239Z,94840.69
2022-09-20T01:06:43.336Z,94837.91
2022-09-20T01:07:48.284Z,94837.91
2022-09-20T01:08:52.179Z,94842.19
2022-09-20T01:09:53.726Z,94836.56
2022-09-20T01:10:55.402Z,94826.09
2022-09-20T01:11:58.352Z,94830.97
2022-09-20T01:12:59.860Z,94835.09
2022-09-20T01:14:01.803Z,94832.84
2022-09-20T01:15:05.872Z,94839.75
2022-09-20T01:16:09.109Z,94838.47
2022-09-20T01:17:11.624Z,94837.16
2022-09-20T01:18:14.242Z,94836.22
2022-09-20T01:19:29.463Z,94827.44
2022-09-20T01:20:34.929Z,94830.59
2022-09-20T01:21:36.726Z,94837.69
2022-09-20T01:22:54.027Z,94840.34
2022-09-20T01:24:22.395Z,94838.84
2022-09-20T01:25:26.631Z,94836.03
2022-09-20T01:26:58.148Z,94837.69
2022-09-20T01:27:59.855Z,94837.31
2022-09-20T01:29:13.347Z,94829.84
2022-09-20T01:30:24.483Z,94831.34
2022-09-20T01:31:34.850Z,94827.03
2022-09-20T01:32:56.693Z,94829.84
2022-09-20T01:34:24.058Z,94826.47
2022-09-20T01:35:28.758Z,94822.75
2022-09-20T01:36:38.301Z,94825.75
2022-09-20T01:38:00.795Z,94830.59
2022-09-20T01:39:20.808Z,94838.06
2022-09-20T01:40:39.752Z,94828.75
2022-09-20T01:41:50.858Z,94830.59
2022-09-20T01:43:07.470Z,94831.91
2022-09-20T01:44:22.160Z,94833.97
2022-09-20T01:45:32.957Z,94829.63
2022-09-20T01:46:36.663Z,94828.00
2022-09-20T01:47:55.724Z,94833.00
2022-09-20T01:49:33.984Z,94830.97
2022-09-20T01:50:58.612Z,94831.69
2022-09-20T01:52:33.078Z,94830.97
2022-09-20T01:54:42.390Z,94839.19
2022-09-20T01:56:21.380Z,94830.78
2022-09-20T01:57:43.813Z,94833.59
2022-09-20T01:59:22.593Z,94837.69
2022-09-20T02:01:04.046Z,94829.47
2022-09-20T02:02:27.492Z,94835.66
2022-09-20T02:03:54.271Z,94828.53
2022-09-20T02:05:15.381Z,94820.84
2022-09-20T02:06:21.595Z,94812.44
2022-09-20T02:07:44.353Z,94808.91
2022-09-20T02:08:54.806Z,94813.22
2022-09-20T02:10:19.378Z,94803.84
2022-09-20T02:11:37.952Z,94806.66
2022-09-20T02:13:04.273Z,94811.16
2022-09-20T02:14:30.757Z,94809.47
2022-09-20T02:15:38.231Z,94802.38
2022-09-20T02:16:48.881Z,94802.38
2022-09-20T02:18:02.499Z,94807.63
2022-09-20T02:19:42.626Z,94803.66
2022-09-20T02:21:03.519Z,94809.09
2022-09-20T02:22:17.106Z,94803.13
2022-09-20T02:23:43.252Z,94806.66
2022-09-20T02:24:56.764Z,94810.03
2022-09-20T02:26:22.466Z,94809.28
2022-09-20T02:27:36.318Z,94812.84
2022-09-20T02:29:12.888Z,94806.47
2022-09-20T02:30:38.926Z,94823.13
2022-09-20T02:31:46.481Z,94813.75
2022-09-20T02:33:18.767Z,94814.50
2022-09-20T02:34:48.150Z,94813.03
2022-09-20T02:36:08.636Z,94808.16
2022-09-20T02:37:51.986Z,94815.09
2022-09-20T02:39:11.710Z,94820.13
2022-09-20T02:40:20.106Z,94815.25
2022-09-20T02:41:42.025Z,94820.13
2022-09-20T02:42:46.724Z,94819.56
2022-09-20T02:44:02.261Z,94815.25
2022-09-20T02:45:21.421Z,94816.41
2022-09-20T02:46:30.521Z,94824.44
2022-09-20T02:47:37.232Z,94822.75
2022-09-20T02:48:48.715Z,94826.66
2022-09-20T02:49:59.188Z,94828.53
2022-09-20T02:51:17.749Z,94822.00
2022-09-20T02:52:28.312Z,94834.13
2022-09-20T02:54:12.939Z,94831.16
2022-09-20T02:55:26.212Z,94827.25
2022-09-20T02:56:51.245Z,94825.72
2022-09-20T02:58:26.649Z,94827.03
2022-09-20T02:59:33.555Z,94829.47
2022-09-20T03:00:59.876Z,94829.69
2022-09-20T03:02:25.073Z,94826.88
2022-09-20T03:03:40.961Z,94822.56
2022-09-20T03:04:57.439Z,94826.88
2022-09-20T03:06:06.202Z,94828.53
2022-09-20T03:07:32.280Z,94823.88
2022-09-20T03:08:44.532Z,94828.38
2022-09-20T03:10:00.276Z,94826.09
2022-09-20T03:11:17.292Z,94826.09
2022-09-20T03:12:30.562Z,94822.94
2022-09-20T03:14:09.420Z,94826.47
2022-09-20T03:15:29.636Z,94813.78
2022-09-20T03:16:57.823Z,94817.16
2022-09-20T03:18:11.041Z,94820.69
2022-09-20T03:19:22.084Z,94822.38
2022-09-20T03:20:26.545Z,94824.63
2022-09-20T03:21:50.933Z,94840.13
2022-09-20T03:23:22.410Z,94834.88
2022-09-20T03:24:34.530Z,94836.22
2022-09-20T03:25:51.412Z,94832.84
2022-09-20T03:26:55.649Z,94831.72
2022-09-20T03:28:23.740Z,94830.44
2022-09-20T03:29:31.200Z,94829.47
2022-09-20T03:30:41.791Z,94832.47
2022-09-20T03:32:10.607Z,94842.56
2022-09-20T03:33:30.121Z,94838.25
2022-09-20T03:34:37.288Z,94847.06
2022-09-20T03:36:08.372Z,94839.00
2022-09-20T03:37:32.809Z,94834.16
2022-09-20T03:38:59.174Z,94844.06
2022-09-20T03:40:31.751Z,94832.84
2022-09-20T03:41:57.044Z,94838.47
2022-09-20T03:43:13.492Z,94841.63
2022-09-20T03:44:50.486Z,94837.91
2022-09-20T03:46:04.334Z,94840.31
2022-09-20T03:47:14.834Z,94841.44
2022-09-20T03:48:58.741Z,94835.47
2022-09-20T03:50:15.469Z,94836.41
2022-09-20T03:51:44.620Z,94834.72
2022-09-20T03:53:10.163Z,94844.81
2022-09-20T03:54:33.638Z,94836.22
2022-09-20T03:56:09.261Z,94836.03
2022-09-20T03:57:19.873Z,94833.41
2022-09-20T03:58:36.638Z,94834.72
2022-09-20T04:00:20.880Z,94837.31
2022-09-20T04:01:25.239Z,94842.75
2022-09-20T04:03:07.710Z,94843.69
2022-09-20T04:04:34.395Z,94851.53
2022-09-20T04:05:52.866Z,94847.41
2022-09-20T04:07:00.272Z,94847.41
2022-09-20T04:08:44.052Z,94847.78
2022-09-20T04:10:10.293Z,94851.53
2022-09-20T04:11:22.096Z,94858.63
2022-09-20T04:12:29.748Z,94862.94
2022-09-20T04:13:40.924Z,94862.75
2022-09-20T04:15:05.180Z,94864.63
2022-09-20T04:16:25.476Z,94865.38
2022-09-20T04:17:51.695Z,94871.16
2022-09-20T04:18:58.280Z,94874.34
2022-09-20T04:20:02.650Z,94873.59
2022-09-20T04:21:23.887Z,94872.13
2022-09-20T04:22:28.832Z,94869.31
2022-09-20T04:23:35.129Z,94880.69
2022-09-20T04:24:55.518Z,94868.38
2022-09-20T04:26:00.126Z,94868.75
2022-09-20T04:27:43.832Z,94876.78
2022-09-20T04:28:54.490Z,94876.03
2022-09-20T04:30:02.225Z,94881.28
2022-09-20T04:31:23.273Z,94883.88
2022-09-20T04:32:35.624Z,94885.94
2022-09-20T04:33:45.184Z,94881.44
2022-09-20T04:35:13.784Z,94881.28
2022-09-20T04:36:32.746Z,94880.69
2022-09-20T04:37:38.426Z,94881.81
2022-09-20T04:38:40.661Z,94880.69
2022-09-20T04:39:49.338Z,94885.19
2022-09-20T04:41:09.452Z,94887.25
2022-09-20T04:42:35.451Z,94890.81
2022-09-20T04:43:58.786Z,94892.31
2022-09-20T04:45:39.187Z,94893.44
2022-09-20T04:46:46.503Z,94895.84
2022-09-20T04:48:43.531Z,94884.81
2022-09-20T04:50:26.851Z,94884.41
2022-09-20T04:52:09.539Z,94890.75
2022-09-20T04:53:40.573Z,94877.09
2022-09-20T04:55:29.707Z,94890.00
2022-09-20T04:56:36.998Z,94885.31
2022-09-20T04:58:16.334Z,94886.03
2022-09-20T04:59:53.140Z,94889.19
2022-09-20T05:00:57.755Z,94885.81
2022-09-20T05:02:24.798Z,94887.28
2022-09-20T05:04:40.667Z,94883.69
2022-09-20T05:05:57.411Z,94881.72
2022-09-20T05:07:13.944Z,94885.81
2022-09-20T05:08:24.435Z,94876.59
2022-09-20T05:09:50.930Z,94887.84
2022-09-20T05:11:27.678Z,94881.78
2022-09-20T05:13:15.905Z,94882.47
2022-09-20T05:14:37.326Z,94895.09
2022-09-20T05:15:55.146Z,94893.56
2022-09-20T05:17:09.214Z,94900.06
2022-09-20T05:18:45.488Z,94903.03
2022-09-20T05:20:24.320Z,94900.91
2022-09-20T05:21:47.942Z,94905.16
2022-09-20T05:23:46.948Z,94905.28
2022-09-20T05:24:59.960Z,94901.00
2022-09-20T05:26:10.277Z,94894.22
2022-09-20T05:27:30.103Z,94905.06
2022-09-20T05:28:56.753Z,94900.50
2022-09-20T05:30:04.832Z,94894.81
2022-09-20T05:31:15.586Z,94891.78
2022-09-20T05:32:29.313Z,94902.84
2022-09-20T05:33:37.651Z,94898.91
2022-09-20T05:35:03.995Z,94895.91
2022-09-20T05:36:13.145Z,94890.59
2022-09-20T05:37:52.403Z,94904.88
2022-09-20T05:39:03.565Z,94905.34
2022-09-20T05:40:23.906Z,94907.44
2022-09-20T05:41:42.401Z,94900.13
2022-09-20T05:42:44.267Z,94897.31
2022-09-20T05:43:51.043Z,94905.59
2022-09-20T05:45:07.993Z,94906.44
2022-09-20T05:46:12.280Z,94901.31
2022-09-20T05:47:37.997Z,94901.72
2022-09-20T05:49:11.246Z,94900.22
2022-09-20T05:50:29.807Z,94895.53
2022-09-20T05:51:40.520Z,94907.97
2022-09-20T05:53:14.634Z,94893.72
2022-09-20T05:54:54.725Z,94898.03
2022-09-20T05:56:05.384Z,94898.03
2022-09-20T05:57:25.407Z,94907.69
2022-09-20T05:58:47.733Z,94909.88
2022-09-20T06:00:16.049Z,94900.78
2022-09-20T06:01:30.605Z,94901.34
2022-09-20T06:02:40.227Z,94897.84
2022-09-20T06:03:55.761Z,94905.59
2022-09-20T06:05:12.630Z,94904.50
2022-09-20T06:06:23.265Z,94898.94
2022-09-20T06:07:28.105Z,94902.72
2022-09-20T06:08:38.796Z,94895.25
2022-09-20T06:09:42.941Z,94899.03
2022-09-20T06:11:08.727Z,94896.84
2022-09-20T06:12:26.114Z,94896.50
2022-09-20T06:13:45.649Z,94898.75
2022-09-20T06:15:17.162Z,94896.31
2022-09-20T06:16:31.623Z,94903.66
2022-09-20T06:17:48.639Z,94896.56
2022-09-20T06:19:01.680Z,94902.91
2022-09-20T06:20:25.278Z,94904.63
2022-09-20T06:21:53.546Z,94904.44
2022-09-20T06:22:58.262Z,94905.75
2022-09-20T06:24:01.410Z,94905.41
2022-09-20T06:25:08.663Z,94911.22
2022-09-20T06:26:20.638Z,94906.00
2022-09-20T06:27:28.376Z,94903.91
2022-09-20T06:28:45.638Z,94901.09
2022-09-20T06:29:53.502Z,94894.00
2022-09-20T06:30:57.274Z,94903.00
2022-09-20T06:31:58.999Z,94902.28
2022-09-20T06:33:15.717Z,94904.13
2022-09-20T06:34:17.248Z,94908.06
2022-09-20T06:35:20.770Z,94907.31
2022-09-20T06:36:50.215Z,94894.22
2022-09-20T06:38:18.571Z,94901.13
2022-09-20T06:39:53.711Z,94900.41
2022-09-20T06:41:13.973Z,94900.97
2022-09-20T06:42:15.670Z,94906.41
2022-09-20T06:43:19.307Z,94907.91
2022-09-20T06:44:20.903Z,94904.91
2022-09-20T06:45:22.438Z,94907.19
2022-09-20T06:46:24.684Z,94902.09
2022-09-20T06:47:27.206Z,94914.66
2022-09-20T06:48:31.543Z,94901.34
2022-09-20T06:49:35.910Z,94907.56
2022-09-20T06:50:37.452Z,94911.66
2022-09-20T06:51:39.483Z,94904.91
2022-09-20T06:52:42.216Z,94901.94
2022-09-20T06:53:43.896Z,94908.84
2022-09-20T06:54:47.250Z,94903.97
2022-09-20T06:55:49.099Z,94908.84
2022-09-20T06:56:51.544Z,94898.94
2022-09-20T06:57:53.383Z,94901.94
2022-09-20T06:58:55.070Z,94908.84
2022-09-20T06:59:56.580Z,94914.66
2022-09-20T07:00:58.157Z,94914.66
2022-09-20T07:02:00.184Z,94915.78
2022-09-20T07:03:01.741Z,94912.41
2022-09-20T07:04:09.741Z,94921.78
2022-09-20T07:05:15.710Z,94915.78
2022-09-20T07:06:18.115Z,94922.16
2022-09-20T07:07:19.726Z,94911.66
2022-09-20T07:08:21.237Z,94911.66
2022-09-20T07:09:22.793Z,94918.78
2022-09-20T07:10:28.183Z,94914.31
2022-09-20T07:11:29.877Z,94915.03
2022-09-20T07:12:33.999Z,94912.63
2022-09-20T07:13:36.654Z,94907.00
2022-09-20T07:14:39.113Z,94908.31
2022-09-20T07:15:40.962Z,94906.44
2022-09-20T07:16:42.531Z,94912.63
2022-09-20T07:17:45.327Z,94912.03
2022-09-20T07:18:47.908Z,94914.84
2022-09-20T07:19:49.465Z,94919.38
2022-09-20T07:20:50.977Z,94917.13
2022-09-20T07:21:52.502Z,94916.38
2022-09-20T07:22:54.126Z,94922.16
2022-09-20T07:23:55.746Z,94924.97
2022-09-20T07:24:58.975Z,94920.69
2022-09-20T07:26:01.084Z,94919.19
2022-09-20T07:27:05.168Z,94919.94
2022-09-20T07:28:07.087Z,94918.25
2022-09-20T07:29:09.531Z,94916.75
2022-09-20T07:30:12.598Z,94922.53
2022-09-20T07:31:14.463Z,94919.56
2022-09-20T07:32:17.199Z,94912.63
2022-09-20T07:33:21.550Z,94919.72
2022-09-20T07:34:23.275Z,94915.63
2022-09-20T07:35:25.195Z,94923.28
2022-09-20T07:36:26.788Z,94911.50
2022-09-20T07:37:28.355Z,94909.81
2022-09-20T07:38:29.894Z,94915.44
2022-09-20T07:39:31.399Z,94911.13
2022-09-20T07:40:32.987Z,94915.25
2022-09-20T07:41:34.498Z,94916.91
2022-09-20T07:42:36.064Z,94911.28
2022-09-20T07:43:37.803Z,94920.47
2022-09-20T07:44:42.366Z,94911.88
2022-09-20T07:45:43.943Z,94909.81
2022-09-20T07:46:46.108Z,94919.56
2022-09-20T07:47:47.694Z,94917.13
2022-09-20T07:48:49.274Z,94914.31
2022-09-20T07:49:51.535Z,94907.19
2022-09-20T07:51:08.454Z,94909.22
2022-09-20T07:52:11.232Z,94908.69
2022-09-20T07:53:12.795Z,94907.38
2022-09-20T07:54:14.951Z,94910.38
2022-09-20T07:55:16.927Z,94904.75
2022-09-20T07:56:18.990Z,94899.13
2022-09-20T07:57:20.547Z,94905.50
2022-09-20T07:58:22.229Z,94902.09
2022-09-20T07:59:24.434Z,94897.97
2022-09-20T08:00:26.651Z,94899.28
2022-09-20T08:01:28.289Z,94900.03
2022-09-20T08:02:29.939Z,94900.78
2022-09-20T08:03:33.676Z,94899.28
2022-09-20T08:04:35.222Z,94903.44
2022-09-20T08:05:36.781Z,94900.44
2022-09-20T08:06:40.273Z,94897.81
2022-09-20T08:07:41.814Z,94901.94
2022-09-20T08:08:43.484Z,94900.44
2022-09-20T08:09:45.031Z,94895.75
2022-09-20T08:10:46.722Z,94899.28
2022-09-20T08:11:48.635Z,94900.78
2022-09-20T08:14:18.463Z,94898.56
2022-09-20T08:15:20.164Z,94907.19
2022-09-20T08:16:22.104Z,94899.50
2022-09-20T08:17:23.664Z,94904.91
2022-09-20T08:18:28.044Z,94904.91
2022-09-20T08:19:30.394Z,94897.97
2022-09-20T08:20:32.341Z,94902.28
2022-09-20T08:21:35.516Z,94901.56
2022-09-20T08:22:39.277Z,94903.78
2022-09-20T08:23:43.486Z,94910.16
2022-09-20T08:24:45.108Z,94902.66
2022-09-20T08:25:48.310Z,94906.75
2022-09-20T08:26:49.881Z,94904.13
2022-09-20T08:27:54.558Z,94905.28
2022-09-20T08:28:58.312Z,94911.09
2022-09-20T08:30:01.115Z,94901.13
2022-09-20T08:31:08.414Z,94907.91
2022-09-20T08:32:10.340Z,94899.84
2022-09-20T08:33:12.940Z,94901.13
2022-09-20T08:34:17.028Z,94899.28
2022-09-20T08:35:18.632Z,94900.00
2022-09-20T08:36:25.557Z,94892.72
2022-09-20T08:37:27.138Z,94900.59
2022-09-20T08:39:59.379Z,94894.41
2022-09-20T08:41:07.294Z,94893.66
2022-09-20T08:42:24.157Z,94894.03
2022-09-20T08:43:29.821Z,94903.41
2022-09-20T08:44:35.681Z,94894.03
2022-09-20T08:45:39.720Z,94888.41
2022-09-20T08:46:51.825Z,94880.56
2022-09-20T08:47:58.855Z,94888.41
2022-09-20T08:49:03.232Z,94889.75
2022-09-20T08:50:11.493Z,94885.81
2022-09-20T08:51:22.691Z,94890.69
2022-09-20T08:52:36.229Z,94882.41
2022-09-20T08:53:49.131Z,94879.97
2022-09-20T08:54:51.093Z,94885.19
2022-09-20T08:55:52.598Z,94876.00
2022-09-20T08:56:55.012Z,94878.09
2022-09-20T08:57:58.121Z,94873.78
2022-09-20T08:59:00.307Z,94881.63
2022-09-20T09:00:04.326Z,94880.88
2022-09-20T09:01:06.897Z,94881.25
2022-09-20T09:02:17.710Z,94878.81
2022-09-20T09:03:19.390Z,94870.59
2022-09-20T09:04:23.912Z,94875.63
2022-09-20T09:05:33.044Z,94867.38
2022-09-20T09:06:34.662Z,94870.41
2022-09-20T09:07:36.183Z,94874.16
2022-09-20T09:08:39.205Z,94870.75
2022-09-20T09:09:43.979Z,94875.44
2022-09-20T09:10:52.588Z,94874.16
2022-09-20T09:11:56.725Z,94872.97
2022-09-20T09:12:59.565Z,94861.75
2022-09-20T09:14:27.045Z,94867.19
2022-09-20T09:15:33.736Z,94867.38
2022-09-20T09:16:36.499Z,94856.47
2022-09-20T09:17:38.140Z,94850.84
2022-09-20T09:18:42.007Z,94855.72
2022-09-20T09:19:56.295Z,94853.31
2022-09-20T09:20:59.381Z,94859.13
2022-09-20T09:22:03.236Z,94857.06
2022-09-20T09:23:11.510Z,94861.75
2022-09-20T09:24:19.284Z,94854.63
2022-09-20T09:25:32.203Z,94858.78
2022-09-20T09:26:43.368Z,94855.03
2022-09-20T09:27:54.789Z,94854.13
2022-09-20T09:29:22.066Z,94852.06
2022-09-20T09:30:46.889Z,94843.78
2022-09-20T09:31:51.785Z,94839.84
2022-09-20T09:33:15.911Z,94839.69
2022-09-20T09:34:28.935Z,94843.22
2022-09-20T09:35:31.778Z,94833.66
2022-09-20T09:36:43.354Z,94837.78
2022-09-20T09:38:00.812Z,94833.28
2022-09-20T09:39:22.426Z,94826.94
2022-09-20T09:40:25.050Z,94840.03
2022-09-20T09:41:31.625Z,94828.59
2022-09-20T09:42:33.240Z,94829.53
2022-09-20T09:43:37.474Z,94823.56
2022-09-20T09:44:39.025Z,94825.06
2022-09-20T09:45:40.607Z,94822.06
2022-09-20T09:46:42.245Z,94826.94
2022-09-20T09:47:44.240Z,94840.44
2022-09-20T09:48:49.964Z,94833.28
2022-09-20T09:50:02.610Z,94824.69
2022-09-20T09:51:15.416Z,94826.53
2022-09-20T09:52:24.645Z,94833.25
2022-09-20T09:53:26.544Z,94841.13
2022-09-20T09:54:50.681Z,94837.97
2022-09-20T09:56:18.436Z,94842.25
2022-09-20T09:57:33.078Z,94841.13
2022-09-20T09:58:58.070Z,94831.38
2022-09-20T10:00:22.034Z,94846.75
2022-09-20T10:01:36.192Z,94831.38
2022-09-20T10:02:46.913Z,94823.53
2022-09-20T10:04:05.280Z,94826.16
2022-09-20T10:05:23.118Z,94821.28
2022-09-20T10:06:40.897Z,94826.88
2022-09-20T10:07:54.553Z,94819.94
2022-09-20T10:08:59.004Z,94816.75
2022-09-20T10:10:21.477Z,94830.25
2022-09-20T10:11:37.960Z,94828.16
2022-09-20T10:13:16.719Z,94814.50
2022-09-20T10:14:24.291Z,94819.00
2022-09-20T10:16:07.752Z,94822.34
2022-09-20T10:17:23.116Z,94826.84
2022-09-20T10:19:03.060Z,94826.09
2022-09-20T10:20:31.182Z,94831.91
2022-09-20T10:22:07.321Z,94834.38
2022-09-20T10:23:45.090Z,94830.25
2022-09-20T10:24:42.494Z,94821.97
2022-09-20T10:26:07.671Z,94824.44
2022-09-20T10:27:23.207Z,94821.63
2022-09-20T10:28:57.804Z,94821.47
2022-09-20T10:30:07.493Z,94828.56
2022-09-20T10:31:24.924Z,94822.75
2022-09-20T10:32:31.540Z,94815.84
2022-09-20T10:34:06.694Z,94814.91
2022-09-20T10:35:24.924Z,94829.88
2022-09-20T10:36:38.783Z,94823.28
2022-09-20T10:38:05.791Z,94816.41
2022-09-20T10:39:25.843Z,94813.03
2022-09-20T10:41:10.926Z,94815.25
2022-09-20T10:43:16.002Z,94821.63
2022-09-20T10:44:32.675Z,94823.47
2022-09-20T10:47:23.000Z,94823.28
2022-09-20T10:48:32.702Z,94821.63
2022-09-20T10:50:05.012Z,94821.28
2022-09-20T10:51:47.187Z,94822.75
2022-09-20T10:52:51.420Z,94819.75
2022-09-20T10:54:11.523Z,94816.75
2022-09-20T10:55:31.686Z,94824.44
2022-09-20T10:56:36.167Z,94819.78
2022-09-20T10:58:16.639Z,94815.31
2022-09-20T10:59:19.075Z,94816.00
2022-09-20T11:00:32.382Z,94830.63
2022-09-20T11:01:48.918Z,94824.06
2022-09-20T11:03:19.574Z,94824.25
2022-09-20T11:04:42.835Z,94810.38
2022-09-20T11:05:59.549Z,94818.81
2022-09-20T11:07:15.091Z,94819.56
2022-09-20T11:08:22.929Z,94808.91
2022-09-20T11:09:30.062Z,94805.50
2022-09-20T11:10:58.410Z,94815.25
2022-09-20T11:12:42.575Z,94816.34
2022-09-20T11:14:12.494Z,94817.50
2022-09-20T11:15:29.894Z,94806.44
2022-09-20T11:16:41.797Z,94806.44
2022-09-20T11:17:51.734Z,94801.00
2022-09-20T11:19:14.048Z,94796.50
2022-09-20T11:20:22.463Z,94802.13
2022-09-20T11:21:34.517Z,94804.94
2022-09-20T11:22:50.488Z,94809.63
2022-09-20T11:24:17.015Z,94791.28
2022-09-20T11:25:29.863Z,94794.59
2022-09-20T11:26:42.265Z,94801.41
2022-09-20T11:28:20.809Z,94789.03
2022-09-20T11:29:32.386Z,94794.09
2022-09-20T11:30:39.140Z,94799.13
2022-09-20T11:31:45.640Z,94804.75
2022-09-20T11:33:01.943Z,94801.78
2022-09-20T11:34:25.856Z,94793.34
2022-09-20T11:35:34.929Z,94796.50
2022-09-20T11:36:42.790Z,94786.59
2022-09-20T11:37:55.160Z,94788.63
2022-09-20T11:39:03.782Z,94792.78
2022-09-20T11:40:26.766Z,94791.84
2022-09-20T11:41:30.566Z,94799.31
2022-09-20T11:42:36.432Z,94783.78
2022-09-20T11:43:42.645Z,94786.59
2022-09-20T11:44:44.331Z,94787.91
2022-09-20T11:45:52.249Z,94789.41
2022-09-20T11:47:03.083Z,94788.63
2022-09-20T11:48:15.911Z,94774.03
2022-09-20T11:49:24.035Z,94782.63
2022-09-20T11:51:05.847Z,94796.50
2022-09-20T11:52:35.125Z,94781.88
2022-09-20T11:54:04.884Z,94786.75
2022-09-20T11:55:24.921Z,94783.56
2022-09-20T11:56:29.693Z,94767.28
2022-09-20T11:57:31.462Z,94764.28
2022-09-20T11:58:48.779Z,94768.22
2022-09-20T11:59:55.800Z,94773.28
2022-09-20T12:00:59.906Z,94774.03
2022-09-20T12:02:05.130Z,94764.84
2022-09-20T12:03:22.420Z,94773.84
2022-09-20T12:04:32.841Z,94773.28
2022-09-20T12:05:41.825Z,94773.28
2022-09-20T12:06:43.830Z,94768.41
2022-09-20T12:07:46.128Z,94771.03
2022-09-20T12:08:51.052Z,94775.91
2022-09-20T12:10:08.462Z,94765.41
2022-09-20T12:11:15.284Z,94765.41
2022-09-20T12:12:53.644Z,94771.03
2022-09-20T12:14:06.048Z,94769.91
2022-09-20T12:15:22.319Z,94768.06
2022-09-20T12:16:48.219Z,94768.06
2022-09-20T12:17:50.004Z,94771.97
2022-09-20T12:18:54.568Z,94752.69
2022-09-20T12:19:56.057Z,94765.41
2022-09-20T12:20:57.570Z,94762.44
2022-09-20T12:21:59.022Z,94763.94
2022-09-20T12:23:41.277Z,94763.97
2022-09-20T12:24:45.505Z,94763.94
2022-09-20T12:26:08.517Z,94763.00
2022-09-20T12:27:25.592Z,94764.13
2022-09-20T12:28:42.070Z,94754.19
2022-09-20T12:29:47.624Z,94754.38
2022-09-20T12:31:26.136Z,94759.44
2022-09-20T12:32:31.812Z,94757.56
2022-09-20T12:33:59.280Z,94744.66
2022-09-20T12:35:01.048Z,94757.16
2022-09-20T12:36:15.978Z,94765.81
2022-09-20T12:37:23.486Z,94758.50
2022-09-20T12:38:33.203Z,94763.19
2022-09-20T12:39:37.645Z,94756.44
2022-09-20T12:41:26.056Z,94756.81
2022-09-20T12:42:32.575Z,94756.78
2022-09-20T12:43:38.649Z,94765.75
2022-09-20T12:44:58.635Z,94756.44
2022-09-20T12:46:05.440Z,94761.66
2022-09-20T12:47:12.135Z,94763.34
2022-09-20T12:48:19.846Z,94757.00
2022-09-20T12:49:46.212Z,94762.94
2022-09-20T12:51:25.847Z,94760.94
2022-09-20T12:52:57.187Z,94752.69
2022-09-20T12:54:02.623Z,94759.78
2022-09-20T12:55:10.274Z,94747.81
2022-09-20T12:56:21.713Z,94753.84
2022-09-20T12:57:32.203Z,94750.47
2022-09-20T12:58:39.769Z,94758.13
2022-09-20T12:59:41.365Z,94742.78
2022-09-20T13:00:59.305Z,94745.97
2022-09-20T13:02:39.828Z,94755.31
2022-09-20T13:03:44.682Z,94755.69
2022-09-20T13:04:55.816Z,94749.69
2022-09-20T13:06:11.145Z,94754.56
2022-09-20T13:07:43.727Z,94748.22
2022-09-20T13:09:13.234Z,94759.44
2022-09-20T13:10:29.196Z,94747.66
2022-09-20T13:11:54.454Z,94753.84
2022-09-20T13:13:18.734Z,94747.81
2022-09-20T13:14:41.651Z,94753.44
2022-09-20T13:15:50.312Z,94749.13
2022-09-20T13:17:07.147Z,94745.25
2022-09-20T13:18:15.514Z,94746.72
2022-09-20T13:19:46.562Z,94749.53
2022-09-20T13:20:48.621Z,94747.81
2022-09-20T13:21:55.846Z,94748.22
2022-09-20T13:23:00.469Z,94748.22
2022-09-20T13:24:03.501Z,94747.47
2022-09-20T13:25:07.284Z,94752.69
2022-09-20T13:26:12.105Z,94751.75
2022-09-20T13:27:22.515Z,94757.97
2022-09-20T13:28:31.365Z,94750.88
2022-09-20T13:29:42.296Z,94749.69
2022-09-20T13:30:43.860Z,94752.69
2022-09-20T13:31:45.478Z,94756.81
2022-09-20T13:32:47.771Z,94758.31
2022-09-20T13:33:49.793Z,94745.59
2022-09-20T13:35:24.678Z,94746.53
2022-09-20T13:36:29.816Z,94749.69
2022-09-20T13:37:32.362Z,94748.56
2022-09-20T13:38:34.905Z,94746.34
2022-09-20T13:39:37.287Z,94736.22
2022-09-20T13:40:45.220Z,94739.63
2022-09-20T13:41:47.109Z,94745.59
2022-09-20T13:42:52.448Z,94749.88
2022-09-20T13:43:54.087Z,94746.88
2022-09-20T13:44:58.741Z,94744.06
2022-09-20T13:46:25.020Z,94746.72
2022-09-20T13:47:29.180Z,94740.72
2022-09-20T13:48:30.769Z,94741.44
2022-09-20T13:49:32.554Z,94738.47
2022-09-20T13:50:41.999Z,94748.22
2022-09-20T13:51:48.177Z,94744.25
2022-09-20T13:52:52.829Z,94750.63
2022-09-20T13:54:14.505Z,94748.56
2022-09-20T13:55:39.068Z,94741.44
2022-09-20T13:56:41.077Z,94740.31
2022-09-20T13:57:42.643Z,94747.41
2022-09-20T13:58:44.361Z,94742.38
2022-09-20T13:59:46.908Z,94740.31
2022-09-20T14:00:56.468Z,94732.44
2022-09-20T14:01:58.977Z,94726.41
2022-09-20T14:03:00.867Z,94736.19
2022-09-20T14:04:09.173Z,94736.75
2022-09-20T14:05:17.572Z,94737.66
2022-09-20T14:06:28.184Z,94742.72
2022-09-20T14:07:31.070Z,94735.03
2022-09-20T14:08:40.797Z,94744.94
2022-09-20T14:09:42.509Z,94746.44
2022-09-20T14:10:45.275Z,94739.91
2022-09-20T14:11:47.328Z,94737.84
2022-09-20T14:12:49.624Z,94737.66
2022-09-20T14:13:59.609Z,94743.13
2022-09-20T14:15:08.506Z,94746.09
2022-09-20T14:16:12.509Z,94728.66
2022-09-20T14:17:19.080Z,94734.84
2022-09-20T14:18:22.491Z,94743.63
2022-09-20T14:19:33.114Z,94743.28